createdAt,value
2022-08-17T00:01:52.107Z,99938.31
2022-08-17T00:04:21.682Z,99932.25
2022-08-17T00:06:50.448Z,99941.72
2022-08-17T00:09:19.478Z,99945.63
2022-08-17T00:12:35.476Z,99947.19
2022-08-17T00:14:38.082Z,99951.47
2022-08-17T00:17:08.256Z,99950.31
2022-08-17T00:19:36.414Z,99945.94
2022-08-17T00:22:33.653Z,99956.09
2022-08-17T00:24:54.764Z,99947.31
2022-08-17T00:27:22.748Z,99954.56
2022-08-17T00:29:50.586Z,99955.25
2022-08-17T00:33:14.542Z,99952.56
2022-08-17T00:35:10.710Z,99957.47
2022-08-17T00:37:39.066Z,99956.13
2022-08-17T00:40:08.468Z,99960.03
2022-08-17T00:42:36.980Z,99960.22
2022-08-17T00:45:06.055Z,99960.56
2022-08-17T00:47:35.291Z,99969.22
2022-08-17T00:50:03.558Z,99968.56
2022-08-17T00:52:36.238Z,99969.75
2022-08-17T00:55:07.160Z,99968.03
2022-08-17T00:57:39.960Z,99967.06
2022-08-17T01:00:12.578Z,99970.59
2022-08-17T01:02:46.047Z,99966.19
2022-08-17T01:05:20.696Z,99970.41
2022-08-17T01:07:51.124Z,99967.91
2022-08-17T01:10:59.577Z,99971.13
2022-08-17T01:13:11.306Z,99971.84
2022-08-17T01:15:48.680Z,99969.00
2022-08-17T01:18:18.121Z,99976.25
2022-08-17T01:20:49.713Z,99977.09
2022-08-17T01:23:21.292Z,99973.56
2022-08-17T01:25:51.209Z,99971.22
2022-08-17T01:28:52.372Z,99966.16
2022-08-17T01:31:09.489Z,99979.00
2022-08-17T01:33:38.383Z,99973.25
2022-08-17T01:36:08.056Z,99971.47
2022-08-17T01:38:38.048Z,99967.25
2022-08-17T01:41:09.501Z,99978.41
2022-08-17T01:43:44.403Z,99976.06
2022-08-17T01:46:16.941Z,99983.50
2022-08-17T01:48:47.349Z,99978.41
2022-08-17T01:51:16.605Z,99974.00
2022-08-17T01:53:49.393Z,99977.56
2022-08-17T01:56:22.808Z,99974.38
2022-08-17T01:58:50.982Z,99978.59
2022-08-17T02:01:24.766Z,99977.44
2022-08-17T02:03:59.396Z,99980.50
2022-08-17T02:06:43.982Z,99972.44
2022-08-17T02:09:23.282Z,99977.84
2022-08-17T02:11:53.322Z,99971.78
2022-08-17T02:14:23.353Z,99974.00
2022-08-17T02:16:51.334Z,99976.34
2022-08-17T02:19:19.411Z,99980.91
2022-08-17T02:21:50.233Z,99972.47
2022-08-17T02:24:59.329Z,99969.66
2022-08-17T02:27:10.766Z,99971.81
2022-08-17T02:29:38.739Z,99969.81
2022-08-17T02:32:07.028Z,99972.50
2022-08-17T02:34:35.168Z,99966.94
2022-08-17T02:37:03.034Z,99973.19
2022-08-17T02:39:32.255Z,99955.81
2022-08-17T02:42:04.790Z,99951.25
2022-08-17T02:44:39.405Z,99955.63
2022-08-17T02:47:09.621Z,99950.25
2022-08-17T02:49:37.878Z,99952.81
2022-08-17T02:52:07.611Z,99956.66
2022-08-17T02:54:40.718Z,99956.81
2022-08-17T02:57:10.289Z,99949.56
2022-08-17T02:59:38.871Z,99955.97
2022-08-17T03:02:08.186Z,99953.09
2022-08-17T03:04:36.340Z,99950.41
2022-08-17T03:07:05.654Z,99946.03
2022-08-17T03:09:33.828Z,99950.41
2022-08-17T03:12:07.059Z,99942.50
2022-08-17T03:14:41.287Z,99952.44
2022-08-17T03:17:10.965Z,99957.31
2022-08-17T03:19:45.478Z,99950.59
2022-08-17T03:22:36.438Z,99952.59
2022-08-17T03:25:02.036Z,99955.66
2022-08-17T03:27:31.400Z,99957.50
2022-08-17T03:29:59.365Z,99950.25
2022-08-17T03:32:27.589Z,99953.97
2022-08-17T03:34:59.319Z,99951.28
2022-08-17T03:37:28.017Z,99956.66
2022-08-17T03:39:55.940Z,99949.94
2022-08-17T03:42:32.448Z,99959.00
2022-08-17T03:45:03.296Z,99964.41
2022-08-17T03:48:01.351Z,99960.72
2022-08-17T03:50:58.691Z,99961.88
2022-08-17T03:53:43.476Z,99958.00
2022-08-17T03:56:29.808Z,99961.38
2022-08-17T03:58:57.737Z,99963.87
2022-08-17T04:01:27.881Z,99960.34
2022-08-17T04:03:56.465Z,99958.31
2022-08-17T04:06:24.377Z,99964.56
2022-08-17T04:08:52.176Z,99970.13
2022-08-17T04:11:20.553Z,99962.37
2022-08-17T04:13:48.400Z,99956.16
2022-08-17T04:16:16.784Z,99959.69
2022-08-17T04:18:46.317Z,99961.38
2022-08-17T04:21:14.209Z,99964.91
2022-08-17T04:23:42.058Z,99968.25
2022-08-17T04:26:11.509Z,99980.56
2022-08-17T04:28:59.814Z,99969.47
2022-08-17T04:31:28.542Z,99971.13
2022-08-17T04:33:57.806Z,99976.88
2022-08-17T04:36:25.653Z,99981.56
2022-08-17T04:38:53.785Z,99989.31
2022-08-17T04:41:39.432Z,99989.19
2022-08-17T04:44:11.731Z,99981.41
2022-08-17T04:46:40.119Z,99982.59
2022-08-17T04:49:10.830Z,99984.31
2022-08-17T04:51:54.704Z,99985.97
2022-08-17T04:54:28.082Z,99985.94
2022-08-17T04:56:56.175Z,99987.63
2022-08-17T04:59:24.236Z,99993.00
2022-08-17T05:01:53.023Z,99997.56
2022-08-17T05:04:34.901Z,100001.06
2022-08-17T05:07:04.510Z,100007.25
2022-08-17T05:09:33.449Z,100005.75
2022-08-17T05:12:01.703Z,100002.22
2022-08-17T05:14:32.942Z,100010.75
2022-08-17T05:17:02.058Z,100014.78
2022-08-17T05:19:38.815Z,100003.63
2022-08-17T05:22:07.523Z,100011.16
2022-08-17T05:24:42.543Z,100017.50
2022-08-17T05:27:18.808Z,100016.63
2022-08-17T05:29:47.196Z,100021.47
2022-08-17T05:32:38.580Z,100013.50
2022-08-17T05:35:06.396Z,100018.84
2022-08-17T05:37:34.564Z,100017.13
2022-08-17T05:40:02.531Z,100016.06
2022-08-17T05:42:30.526Z,100010.22
2022-08-17T05:44:58.901Z,100021.06
2022-08-17T05:47:28.103Z,100014.88
2022-08-17T05:49:56.278Z,100018.00
2022-08-17T05:52:41.055Z,100021.22
2022-08-17T05:55:19.356Z,100027.44
2022-08-17T05:58:07.544Z,100019.81
2022-08-17T06:00:44.118Z,100021.59
2022-08-17T06:03:26.243Z,100020.06
2022-08-17T06:06:18.168Z,100024.00
2022-08-17T06:08:55.047Z,100023.09
2022-08-17T06:11:29.804Z,100033.41
2022-08-17T06:14:14.526Z,100032.81
2022-08-17T06:16:51.809Z,100036.56
2022-08-17T06:19:28.700Z,100042.62
2022-08-17T06:21:57.176Z,100051.03
2022-08-17T06:24:31.385Z,100053.19
2022-08-17T06:27:08.196Z,100052.22
2022-08-17T06:29:45.571Z,100047.06
2022-08-17T06:32:14.496Z,100045.84
2022-08-17T06:34:44.598Z,100051.06
2022-08-17T06:37:31.073Z,100042.81
2022-08-17T06:40:11.057Z,100047.44
2022-08-17T06:43:06.180Z,100045.00
2022-08-17T06:45:40.549Z,100041.50
2022-08-17T06:48:16.022Z,100044.47
2022-08-17T06:50:48.573Z,100041.63
2022-08-17T06:53:23.209Z,100047.94
2022-08-17T06:55:59.838Z,100060.16
2022-08-17T06:58:31.860Z,100065.91
2022-08-17T07:01:06.637Z,100062.41
2022-08-17T07:03:39.549Z,100064.97
2022-08-17T07:06:13.473Z,100060.87
2022-08-17T07:08:56.200Z,100065.94
2022-08-17T07:11:28.331Z,100056.47
2022-08-17T07:14:04.314Z,100059.66
2022-08-17T07:16:39.314Z,100054.28
2022-08-17T07:19:08.064Z,100048.25
2022-08-17T07:21:54.992Z,100053.09
2022-08-17T07:24:37.258Z,100047.44
2022-08-17T07:27:16.144Z,100047.06
2022-08-17T07:29:49.428Z,100050.47
2022-08-17T07:32:23.198Z,100052.97
2022-08-17T07:35:21.124Z,100048.81
2022-08-17T07:37:54.136Z,100037.56
2022-08-17T07:40:27.984Z,100042.97
2022-08-17T07:43:23.044Z,100048.47
2022-08-17T07:46:26.824Z,100049.50
2022-08-17T07:48:57.053Z,100051.03
2022-08-17T07:51:28.582Z,100050.78
2022-08-17T07:54:13.613Z,100053.31
2022-08-17T07:56:46.535Z,100063.75
2022-08-17T07:59:23.302Z,100057.50
2022-08-17T08:02:05.871Z,100057.66
2022-08-17T08:04:59.212Z,100052.16
2022-08-17T08:07:28.871Z,100051.66
2022-08-17T08:10:10.684Z,100050.75
2022-08-17T08:12:41.023Z,100053.81
2022-08-17T08:15:18.953Z,100064.63
2022-08-17T08:17:51.733Z,100058.91
2022-08-17T08:20:50.898Z,100058.81
2022-08-17T08:23:27.440Z,100059.31
2022-08-17T08:26:10.152Z,100053.25
2022-08-17T08:28:51.140Z,100053.22
2022-08-17T08:31:31.470Z,100064.34
2022-08-17T08:34:44.441Z,100067.56
2022-08-17T08:37:16.575Z,100060.19
2022-08-17T08:39:55.423Z,100069.09
2022-08-17T08:42:32.870Z,100067.47
2022-08-17T08:45:11.928Z,100062.78
2022-08-17T08:48:22.781Z,100058.66
2022-08-17T08:51:05.195Z,100054.97
2022-08-17T08:53:41.951Z,100048.22
2022-08-17T08:56:17.362Z,100056.66
2022-08-17T08:58:52.912Z,100061.47
2022-08-17T09:01:30.480Z,100069.38
2022-08-17T09:04:25.141Z,100064.69
2022-08-17T09:07:04.370Z,100068.00
2022-08-17T09:09:42.120Z,100064.13
2022-08-17T09:12:16.806Z,100056.38
2022-08-17T09:14:57.606Z,100064.66
2022-08-17T09:17:36.519Z,100066.06
2022-08-17T09:20:27.716Z,100071.47
2022-08-17T09:23:03.373Z,100065.22
2022-08-17T09:25:36.181Z,100066.59
2022-08-17T09:28:07.835Z,100063.28
2022-08-17T09:30:41.948Z,100063.87
2022-08-17T09:33:13.760Z,100053.38
2022-08-17T09:35:48.945Z,100068.16
2022-08-17T09:38:24.143Z,100054.03
2022-08-17T09:40:58.390Z,100048.09
2022-08-17T09:43:34.982Z,100049.81
2022-08-17T09:46:09.432Z,100044.72
2022-08-17T09:48:42.820Z,100043.66
2022-08-17T09:51:30.459Z,100047.88
2022-08-17T09:54:09.683Z,100043.03
2022-08-17T09:57:25.862Z,100047.50
2022-08-17T10:00:01.167Z,100040.87
2022-08-17T10:02:53.516Z,100027.66
2022-08-17T10:05:25.348Z,100020.94
2022-08-17T10:08:01.832Z,100025.81
2022-08-17T10:10:35.015Z,100021.47
2022-08-17T10:13:10.568Z,100023.13
2022-08-17T10:15:52.177Z,100027.03
2022-08-17T10:18:41.727Z,100015.44
2022-08-17T10:21:30.910Z,100014.66
2022-08-17T10:24:24.839Z,100007.75
2022-08-17T10:26:57.483Z,100015.25
2022-08-17T10:29:44.145Z,100017.75
2022-08-17T10:32:27.250Z,100022.47
2022-08-17T10:35:25.914Z,100008.91
2022-08-17T10:38:19.583Z,100016.66
2022-08-17T10:40:58.591Z,100003.41
2022-08-17T10:43:57.902Z,100001.75
2022-08-17T10:46:56.256Z,100003.09
2022-08-17T10:49:29.358Z,100002.81
2022-08-17T10:51:59.929Z,100005.63
2022-08-17T10:54:41.772Z,100002.81
2022-08-17T11:00:03.734Z,99997.00
2022-08-17T11:02:41.315Z,99997.00
2022-08-17T11:05:44.229Z,99998.12
2022-08-17T11:08:50.359Z,99999.75
2022-08-17T11:11:52.526Z,99996.72
2022-08-17T11:14:33.358Z,99998.63
2022-08-17T11:17:17.388Z,99993.28
2022-08-17T11:20:29.908Z,99996.62
2022-08-17T11:23:25.490Z,100005.53
2022-08-17T11:25:56.424Z,100000.59
2022-08-17T11:28:28.908Z,99997.00
2022-08-17T11:31:00.254Z,99992.81
2022-08-17T11:34:03.434Z,99983.91
2022-08-17T11:36:49.356Z,99980.56
2022-08-17T11:39:31.654Z,99986.91
2022-08-17T11:42:06.537Z,99971.50
2022-08-17T11:44:50.488Z,99972.00
2022-08-17T11:47:42.648Z,99965.31
2022-08-17T11:51:15.724Z,99975.25
2022-08-17T11:54:31.260Z,99971.41
2022-08-17T11:56:52.785Z,99970.84
2022-08-17T11:59:59.424Z,99972.88
2022-08-17T12:02:38.831Z,99962.34
2022-08-17T12:05:33.090Z,99970.13
2022-08-17T12:08:15.157Z,99962.16
2022-08-17T12:10:59.071Z,99965.78
2022-08-17T12:13:33.977Z,99959.12
2022-08-17T12:16:09.902Z,99961.63
2022-08-17T12:18:41.778Z,99966.06
2022-08-17T12:21:22.878Z,99965.22
2022-08-17T12:23:58.876Z,99971.88
2022-08-17T12:26:31.382Z,99967.44
2022-08-17T12:29:02.138Z,99961.63
2022-08-17T12:31:35.988Z,99971.84
2022-08-17T12:34:05.183Z,99970.19
2022-08-17T12:36:34.576Z,99967.38
2022-08-17T12:39:14.114Z,99960.97
2022-08-17T12:41:47.354Z,99971.19
2022-08-17T12:44:17.700Z,99971.75
2022-08-17T12:46:49.750Z,99975.06
2022-08-17T12:49:29.884Z,99969.50
2022-08-17T12:52:08.014Z,99965.59
2022-08-17T12:54:46.688Z,99961.16
2022-08-17T12:57:17.844Z,99960.09
2022-08-17T12:59:50.019Z,99957.84
2022-08-17T13:02:28.301Z,99958.47
2022-08-17T13:04:58.057Z,99952.69
2022-08-17T13:07:28.356Z,99947.97
2022-08-17T13:09:57.738Z,99955.31
2022-08-17T13:12:31.771Z,99951.84
2022-08-17T13:15:00.268Z,99943.59
2022-08-17T13:17:31.710Z,99938.53
2022-08-17T13:20:00.325Z,99929.44
2022-08-17T13:22:32.392Z,99927.41
2022-08-17T13:25:07.016Z,99927.38
2022-08-17T13:27:35.158Z,99918.88
2022-08-17T13:30:08.156Z,99922.38
2022-08-17T13:32:42.985Z,99921.25
2022-08-17T13:35:40.041Z,99914.12
2022-08-17T13:38:11.777Z,99909.94
2022-08-17T13:40:45.100Z,99901.00
2022-08-17T13:43:13.280Z,99907.53
2022-08-17T13:45:50.883Z,99895.03
2022-08-17T13:48:30.224Z,99901.13
2022-08-17T13:51:16.187Z,99902.75
2022-08-17T13:54:00.255Z,99906.72
2022-08-17T13:56:39.923Z,99899.22
2022-08-17T13:59:12.281Z,99896.44
2022-08-17T14:01:43.498Z,99905.59
2022-08-17T14:04:14.227Z,99910.31
2022-08-17T14:06:53.033Z,99902.00
2022-08-17T14:09:25.013Z,99905.28
2022-08-17T14:11:55.757Z,99907.25
2022-08-17T14:14:24.743Z,99900.34
2022-08-17T14:16:53.566Z,99903.00
2022-08-17T14:19:22.081Z,99900.94
2022-08-17T14:21:50.943Z,99906.62
2022-08-17T14:24:24.533Z,99903.22
2022-08-17T14:26:54.058Z,99901.06
2022-08-17T14:29:23.256Z,99904.25
2022-08-17T14:31:54.460Z,99904.78
2022-08-17T14:34:23.242Z,99906.00
2022-08-17T14:36:51.510Z,99907.31
2022-08-17T14:39:19.942Z,99911.16
2022-08-17T14:41:48.521Z,99901.78
2022-08-17T14:44:17.940Z,99896.19
2022-08-17T14:46:46.261Z,99902.00
2022-08-17T14:49:15.581Z,99904.03
2022-08-17T14:51:44.557Z,99900.22
2022-08-17T14:54:32.965Z,99900.53
2022-08-17T14:57:22.319Z,99894.44
2022-08-17T14:59:53.376Z,99886.28
2022-08-17T15:02:29.703Z,99876.47
2022-08-17T15:05:02.809Z,99877.22
2022-08-17T15:07:31.500Z,99885.06
2022-08-17T15:10:01.523Z,99878.28
2022-08-17T15:12:34.272Z,99877.25
2022-08-17T15:15:06.252Z,99871.97
2022-08-17T15:17:44.376Z,99875.56
2022-08-17T15:20:15.927Z,99878.53
2022-08-17T15:22:45.077Z,99871.03
2022-08-17T15:25:14.450Z,99874.50
2022-08-17T15:27:42.892Z,99869.63
2022-08-17T15:30:13.415Z,99868.12
2022-08-17T15:32:50.727Z,99863.69
2022-08-17T15:35:28.086Z,99861.25
2022-08-17T15:37:58.198Z,99863.87
2022-08-17T15:40:26.713Z,99860.03
2022-08-17T15:42:54.765Z,99860.47
2022-08-17T15:45:26.426Z,99861.47
2022-08-17T15:47:54.972Z,99856.50
2022-08-17T15:50:23.048Z,99846.09
2022-08-17T15:52:56.858Z,99833.19
2022-08-17T15:55:26.659Z,99835.81
2022-08-17T15:57:55.220Z,99838.97
2022-08-17T16:00:24.690Z,99837.97
2022-08-17T16:03:14.042Z,99836.84
2022-08-17T16:05:42.416Z,99838.25
2022-08-17T16:08:11.199Z,99836.66
2022-08-17T16:10:39.197Z,99828.97
2022-08-17T16:13:17.635Z,99833.31
2022-08-17T16:15:56.999Z,99837.19
2022-08-17T16:18:30.831Z,99837.53
2022-08-17T16:21:20.408Z,99833.94
2022-08-17T16:23:49.212Z,99827.59
2022-08-17T16:26:18.015Z,99822.84
2022-08-17T16:28:46.562Z,99828.34
2022-08-17T16:31:16.627Z,99828.88
2022-08-17T16:34:15.674Z,99830.91
2022-08-17T16:36:33.162Z,99823.16
2022-08-17T16:39:01.418Z,99828.56
2022-08-17T16:41:45.075Z,99827.63
2022-08-17T16:44:15.293Z,99825.41
2022-08-17T16:46:46.061Z,99830.56
2022-08-17T16:49:35.796Z,99819.19
2022-08-17T16:52:03.943Z,99815.44
2022-08-17T16:54:32.576Z,99816.16
2022-08-17T16:57:00.561Z,99815.78
2022-08-17T16:59:39.399Z,99813.22
2022-08-17T17:02:14.543Z,99821.97
2022-08-17T17:04:50.160Z,99814.09
2022-08-17T17:07:33.846Z,99820.44
2022-08-17T17:10:08.081Z,99815.91
2022-08-17T17:13:02.397Z,99826.25
2022-08-17T17:15:32.485Z,99828.00
2022-08-17T17:18:07.085Z,99828.47
2022-08-17T17:20:43.701Z,99831.03
2022-08-17T17:23:19.449Z,99823.38
2022-08-17T17:25:59.628Z,99811.00
2022-08-17T17:28:40.490Z,99802.25
2022-08-17T17:31:14.766Z,99814.50
2022-08-17T17:33:48.816Z,99812.59
2022-08-17T17:36:25.970Z,99820.41
2022-08-17T17:38:59.254Z,99823.69
2022-08-17T17:41:33.853Z,99830.09
2022-08-17T17:44:07.465Z,99834.19
2022-08-17T17:46:39.452Z,99831.94
2022-08-17T17:49:10.561Z,99828.28
2022-08-17T17:52:03.601Z,99832.91
2022-08-17T17:54:49.563Z,99823.22
2022-08-17T17:57:28.668Z,99830.56
2022-08-17T18:00:03.090Z,99831.56
2022-08-17T18:03:01.892Z,99827.03
2022-08-17T18:05:47.875Z,99826.31
2022-08-17T18:08:33.877Z,99837.53
2022-08-17T18:11:24.019Z,99838.66
2022-08-17T18:14:04.624Z,99836.28
2022-08-17T18:16:35.097Z,99848.50
2022-08-17T18:19:03.111Z,99849.94
2022-08-17T18:21:39.550Z,99853.38
2022-08-17T18:24:10.547Z,99859.50
2022-08-17T18:26:48.260Z,99855.47
2022-08-17T18:29:34.350Z,99855.22
2022-08-17T18:32:16.592Z,99858.03
2022-08-17T18:34:48.004Z,99857.53
2022-08-17T18:37:36.612Z,99846.63
2022-08-17T18:40:37.498Z,99854.44
2022-08-17T18:43:15.060Z,99846.88
2022-08-17T18:45:46.965Z,99848.87
2022-08-17T18:48:33.295Z,99847.06
2022-08-17T18:51:05.737Z,99848.50
2022-08-17T18:53:38.833Z,99851.06
2022-08-17T18:56:28.108Z,99852.81
2022-08-17T18:59:06.078Z,99855.09
2022-08-17T19:01:53.910Z,99849.34
2022-08-17T19:04:34.709Z,99850.53
2022-08-17T19:07:23.186Z,99852.00
2022-08-17T19:09:57.177Z,99852.03
2022-08-17T19:12:31.926Z,99845.97
2022-08-17T19:15:01.514Z,99853.16
2022-08-17T19:17:37.187Z,99852.06
2022-08-17T19:20:13.212Z,99853.50
2022-08-17T19:22:53.954Z,99860.19
2022-08-17T19:25:27.213Z,99865.19
2022-08-17T19:28:00.600Z,99853.38
2022-08-17T19:30:28.934Z,99859.00
2022-08-17T19:32:58.341Z,99855.06
2022-08-17T19:35:32.789Z,99846.47
2022-08-17T19:38:13.175Z,99847.78
2022-08-17T19:40:58.629Z,99847.63
2022-08-17T19:43:38.455Z,99845.25
2022-08-17T19:46:18.576Z,99837.84
2022-08-17T19:48:57.591Z,99844.72
2022-08-17T19:51:31.323Z,99846.16
2022-08-17T19:54:06.772Z,99843.72
2022-08-17T19:56:44.277Z,99846.31
2022-08-17T19:59:17.134Z,99844.97
2022-08-17T20:01:49.817Z,99847.00
2022-08-17T20:04:31.860Z,99842.66
2022-08-17T20:07:04.192Z,99843.81
2022-08-17T20:09:37.503Z,99846.88
2022-08-17T20:12:10.686Z,99848.87
2022-08-17T20:14:53.441Z,99849.75
2022-08-17T20:17:26.001Z,99849.00
2022-08-17T20:20:04.787Z,99843.81
2022-08-17T20:22:36.794Z,99851.28
2022-08-17T20:25:29.881Z,99849.91
2022-08-17T20:28:07.291Z,99848.09
2022-08-17T20:30:38.648Z,99854.84
2022-08-17T20:33:13.136Z,99855.50
2022-08-17T20:36:00.447Z,99854.31
2022-08-17T20:38:41.959Z,99855.31
2022-08-17T20:41:13.115Z,99861.88
2022-08-17T20:44:01.584Z,99865.94
2022-08-17T20:46:52.643Z,99863.53
2022-08-17T20:49:27.602Z,99863.78
2022-08-17T20:52:02.587Z,99868.22
2022-08-17T20:54:44.816Z,99868.69
2022-08-17T20:57:42.990Z,99863.87
2022-08-17T21:00:18.195Z,99876.94
2022-08-17T21:02:49.575Z,99875.12
2022-08-17T21:05:57.186Z,99867.00
2022-08-17T21:08:31.715Z,99871.19
2022-08-17T21:11:01.291Z,99868.75
2022-08-17T21:14:06.629Z,99868.34
2022-08-17T21:16:49.237Z,99859.78
2022-08-17T21:19:31.259Z,99864.84
2022-08-17T21:22:12.194Z,99868.41
2022-08-17T21:24:51.738Z,99868.25
2022-08-17T21:27:29.904Z,99865.94
2022-08-17T21:30:23.189Z,99864.91
2022-08-17T21:33:24.970Z,99865.78
2022-08-17T21:36:15.963Z,99855.31
2022-08-17T21:38:57.812Z,99866.66
2022-08-17T21:41:29.506Z,99858.06
2022-08-17T21:44:03.661Z,99871.50
2022-08-17T21:46:36.808Z,99867.56
2022-08-17T21:49:13.313Z,99865.88
2022-08-17T21:51:45.332Z,99865.91
2022-08-17T21:54:31.826Z,99868.62
2022-08-17T21:57:02.460Z,99876.56
2022-08-17T21:59:35.676Z,99879.53
2022-08-17T22:02:07.144Z,99878.91
2022-08-17T22:04:38.698Z,99874.31
2022-08-17T22:07:10.623Z,99880.19
2022-08-17T22:09:43.656Z,99879.34
2022-08-17T22:12:16.088Z,99878.44
2022-08-17T22:14:52.486Z,99880.53
2022-08-17T22:17:25.042Z,99878.47
2022-08-17T22:19:57.300Z,99884.94
2022-08-17T22:22:57.734Z,99890.16
2022-08-17T22:25:27.067Z,99894.56
2022-08-17T22:28:01.088Z,99892.44
2022-08-17T22:30:33.447Z,99894.09
2022-08-17T22:33:22.134Z,99903.06
2022-08-17T22:36:10.406Z,99905.16
2022-08-17T22:38:39.300Z,99901.84
2022-08-17T22:41:38.144Z,99906.59
2022-08-17T22:44:17.181Z,99907.03
2022-08-17T22:46:58.796Z,99921.81
2022-08-17T22:49:31.254Z,99931.63
2022-08-17T22:52:08.776Z,99926.38
2022-08-17T22:54:54.951Z,99935.50
2022-08-17T22:57:42.873Z,99926.31
2022-08-17T23:00:30.081Z,99932.13
2022-08-17T23:03:11.266Z,99930.28
2022-08-17T23:05:40.849Z,99928.56
2022-08-17T23:08:11.335Z,99918.97
2022-08-17T23:10:39.533Z,99917.69
2022-08-17T23:13:11.731Z,99921.25
2022-08-17T23:15:41.072Z,99916.41
2022-08-17T23:18:08.934Z,99918.50
2022-08-17T23:20:38.251Z,99911.81
2022-08-17T23:23:08.923Z,99916.97
2022-08-17T23:25:38.312Z,99914.88
2022-08-17T23:28:07.891Z,99915.47
2022-08-17T23:30:38.148Z,99911.69
2022-08-17T23:33:09.475Z,99906.81
2022-08-17T23:35:39.770Z,99904.31
2022-08-17T23:38:10.054Z,99903.88
2022-08-17T23:40:39.979Z,99904.25
2022-08-17T23:43:23.623Z,99903.00
2022-08-17T23:45:54.975Z,99905.28
2022-08-17T23:48:27.823Z,99919.63
2022-08-17T23:51:10.577Z,99918.34
2022-08-17T23:53:44.069Z,99913.50
2022-08-17T23:56:13.661Z,99911.19
2022-08-17T23:58:43.127Z,99907.84
